createdAt,value
2018-06-21T00:08:06.638Z,21.20
2018-06-21T00:13:01.289Z,21.20
2018-06-21T00:17:55.924Z,21.30
2018-06-21T00:22:50.683Z,21.30
2018-06-21T00:32:39.746Z,21.40
2018-06-21T00:37:34.356Z,21.30
2018-06-21T00:42:28.939Z,21.10
2018-06-21T00:47:23.499Z,21.00
2018-06-21T00:52:18.083Z,20.90
2018-06-21T00:57:12.746Z,20.80
2018-06-21T01:02:07.398Z,20.60
2018-06-21T01:07:02.324Z,20.50
2018-06-21T01:11:56.932Z,20.50
2018-06-21T01:16:51.643Z,20.30
2018-06-21T01:21:46.313Z,20.20
2018-06-21T01:26:40.946Z,20.10
2018-06-21T01:31:35.578Z,20.00
2018-06-21T01:36:30.102Z,19.90
2018-06-21T01:41:24.614Z,19.70
2018-06-21T01:46:19.265Z,19.60
2018-06-21T01:51:13.821Z,19.40
2018-06-21T01:56:08.339Z,19.20
2018-06-21T02:01:02.879Z,19.10
2018-06-21T02:05:57.553Z,18.90
2018-06-21T02:10:52.153Z,18.80
2018-06-21T02:15:46.692Z,18.80
2018-06-21T02:25:35.932Z,18.70
2018-06-21T02:30:30.603Z,18.60
2018-06-21T02:35:25.354Z,18.60
2018-06-21T02:40:19.939Z,18.50
2018-06-21T02:45:14.594Z,18.40
2018-06-21T02:50:09.222Z,18.20
2018-06-21T02:55:04.989Z,18.10
2018-06-21T02:59:59.916Z,18.00
2018-06-21T03:04:54.747Z,17.90
2018-06-21T03:09:49.337Z,17.70
2018-06-21T03:14:44.292Z,17.70
2018-06-21T03:19:38.982Z,17.60
2018-06-21T03:24:33.654Z,17.60
2018-06-21T03:34:23.219Z,17.50
2018-06-21T03:39:17.783Z,17.40
2018-06-21T03:54:01.413Z,17.50
2018-06-21T04:03:50.560Z,17.60
2018-06-21T04:08:45.327Z,17.70
2018-06-21T04:13:40.053Z,17.90
2018-06-21T04:33:19.761Z,18.70
2018-06-21T04:38:14.322Z,18.90
2018-06-21T04:43:09.056Z,19.20
2018-06-21T04:48:03.696Z,19.50
2018-06-21T04:52:58.710Z,19.70
2018-06-21T04:57:53.212Z,19.80
2018-06-21T05:02:47.778Z,19.90
2018-06-21T05:07:42.527Z,20.20
2018-06-21T05:12:37.067Z,20.30
2018-06-21T05:17:31.610Z,20.30
2018-06-21T05:22:26.868Z,21.10
2018-06-21T05:27:21.351Z,22.80
2018-06-21T05:32:17.326Z,24.30
2018-06-21T05:37:12.638Z,26.30
2018-06-21T05:42:07.105Z,27.30
2018-06-21T05:47:01.793Z,26.90
2018-06-21T05:56:50.911Z,26.50
2018-06-21T06:06:42.149Z,24.30
2018-06-21T06:11:36.675Z,23.40
2018-06-21T06:16:31.404Z,22.80
2018-06-21T06:26:20.151Z,21.70
2018-06-21T06:31:14.626Z,21.30
2018-06-21T06:36:09.086Z,21.00
2018-06-21T06:41:03.560Z,20.70
2018-06-21T06:45:58.457Z,20.50
2018-06-21T06:50:52.949Z,20.40
2018-06-21T06:55:47.626Z,20.20
2018-06-21T07:00:42.131Z,20.10
2018-06-21T07:05:36.752Z,20.00
2018-06-21T07:10:31.462Z,20.10
2018-06-21T07:15:26.185Z,20.10
2018-06-21T07:25:15.440Z,20.20
2018-06-21T07:30:10.315Z,20.20
2018-06-21T07:35:04.797Z,20.10
2018-06-21T07:39:59.345Z,20.00
2018-06-21T07:44:53.813Z,20.00
2018-06-21T07:49:48.302Z,20.10
2018-06-21T07:54:43.272Z,20.10
2018-06-21T07:59:37.882Z,20.20
2018-06-21T08:04:32.730Z,20.30
2018-06-21T08:09:27.368Z,20.40
2018-06-21T08:14:21.915Z,20.60
2018-06-21T08:19:16.384Z,21.00
2018-06-21T08:24:10.835Z,21.70
2018-06-21T08:29:05.300Z,22.30
2018-06-21T08:34:00.010Z,22.40
2018-06-21T08:43:49.244Z,22.30
2018-06-21T08:53:38.326Z,23.50
2018-06-21T08:58:33.408Z,23.90
2018-06-21T09:03:27.882Z,24.30
2018-06-21T09:08:22.331Z,25.80
2018-06-21T09:13:16.781Z,26.20
2018-06-21T09:23:05.702Z,25.80
2018-06-21T09:28:00.357Z,25.30
2018-06-21T09:32:54.926Z,26.80
2018-06-21T09:37:54.925Z,29.20
2018-06-21T09:42:54.916Z,31.60
2018-06-21T09:47:55.076Z,34.60
2018-06-21T09:52:49.986Z,37.40
2018-06-21T09:57:45.603Z,34.60
2018-06-21T10:02:40.598Z,31.50
2018-06-21T10:07:35.343Z,29.30
2018-06-21T10:12:30.077Z,28.00
2018-06-21T10:17:25.351Z,26.90
2018-06-21T10:22:20.416Z,26.10
2018-06-21T10:27:15.052Z,25.70
2018-06-21T10:37:04.213Z,24.90
2018-06-21T10:41:59.278Z,24.60
2018-06-21T10:46:53.922Z,24.40
2018-06-21T10:51:48.598Z,24.10
2018-06-21T10:56:43.473Z,23.70
2018-06-21T11:01:38.448Z,23.60
2018-06-21T11:06:33.300Z,23.30
2018-06-21T11:11:28.526Z,23.00
2018-06-21T11:16:23.473Z,22.80
2018-06-21T11:21:18.364Z,22.70
2018-06-21T11:26:13.589Z,23.10
2018-06-21T11:31:08.292Z,23.20
2018-06-21T11:36:04.313Z,23.20
2018-06-21T11:40:58.788Z,23.20
2018-06-21T11:50:47.692Z,23.40
2018-06-21T12:00:37.020Z,23.10
2018-06-21T12:05:31.956Z,22.60
2018-06-21T12:10:26.833Z,22.20
2018-06-21T12:15:21.492Z,21.80
2018-06-21T12:20:16.005Z,21.80
2018-06-21T12:30:05.049Z,21.90
2018-06-21T12:34:59.750Z,22.00
2018-06-21T12:39:54.211Z,22.00
2018-06-21T12:44:48.671Z,21.90
2018-06-21T12:49:43.502Z,21.90
2018-06-21T13:04:27.088Z,21.70
2018-06-21T13:09:38.656Z,21.60
2018-06-21T13:14:33.626Z,21.50
2018-06-21T13:19:28.092Z,21.70
2018-06-21T13:24:22.697Z,21.90
2018-06-21T13:29:17.446Z,22.00
2018-06-21T13:34:11.928Z,22.20
2018-06-21T13:39:08.579Z,21.70
2018-06-21T13:44:05.601Z,22.10
2018-06-21T13:53:54.919Z,21.80
2018-06-21T13:58:53.221Z,21.70
2018-06-21T14:03:47.699Z,21.60
2018-06-21T14:08:42.460Z,21.30
2018-06-21T14:13:37.137Z,21.20
2018-06-21T14:23:26.411Z,21.20
2018-06-21T14:28:20.921Z,20.90
2018-06-21T14:33:16.322Z,20.70
2018-06-21T14:38:10.914Z,20.90
2018-06-21T14:43:05.963Z,21.00
2018-06-21T14:48:00.503Z,21.20
2018-06-21T14:52:55.268Z,21.30
2018-06-21T14:57:49.779Z,21.30
2018-06-21T15:02:44.284Z,21.60
2018-06-21T15:07:38.802Z,21.70
2018-06-21T15:12:33.527Z,21.70
2018-06-21T15:17:28.350Z,21.40
2018-06-21T15:22:23.130Z,21.20
2018-06-21T15:27:17.639Z,20.90
2018-06-21T15:32:12.138Z,21.40
2018-06-21T15:37:07.001Z,21.70
2018-06-21T15:42:02.270Z,21.00
2018-06-21T15:46:57.033Z,20.90
2018-06-21T15:51:51.579Z,20.90
2018-06-21T15:56:46.612Z,20.40
2018-06-21T16:01:41.147Z,20.00
2018-06-21T16:06:35.703Z,20.10
2018-06-21T16:16:24.852Z,20.40
2018-06-21T16:21:19.286Z,20.70
2018-06-21T16:26:13.782Z,20.80
2018-06-21T16:31:08.238Z,21.10
2018-06-21T16:36:03.070Z,21.00
2018-06-21T16:40:57.830Z,20.50
2018-06-21T16:45:52.693Z,20.10
2018-06-21T16:50:47.228Z,19.70
2018-06-21T16:55:41.924Z,19.50
2018-06-21T17:00:36.589Z,19.60
2018-06-21T17:05:31.452Z,19.60
2018-06-21T17:10:26.098Z,19.40
2018-06-21T17:15:21.366Z,19.20
2018-06-21T17:20:15.981Z,19.10
2018-06-21T17:25:10.534Z,18.90
2018-06-21T17:30:05.505Z,18.80
2018-06-21T17:35:00.208Z,18.70
2018-06-21T17:39:54.720Z,18.50
2018-06-21T17:44:49.309Z,18.30
2018-06-21T17:49:43.822Z,18.40
2018-06-21T17:54:38.504Z,18.30
2018-06-21T17:59:33.637Z,18.20
2018-06-21T18:04:28.243Z,18.00
2018-06-21T18:09:23.104Z,17.90
2018-06-21T18:14:17.753Z,17.80
2018-06-21T18:19:12.399Z,17.60
2018-06-21T18:24:46.335Z,17.60
2018-06-21T18:35:11.853Z,17.60
2018-06-21T18:40:20.668Z,17.60
2018-06-21T18:45:19.956Z,17.50
2018-06-21T18:50:14.462Z,17.40
2018-06-21T18:55:08.959Z,17.40
2018-06-21T19:00:03.710Z,17.40
2018-06-21T19:04:58.182Z,17.30
2018-06-21T19:09:58.021Z,17.00
2018-06-21T19:14:53.098Z,16.70
2018-06-21T19:24:43.831Z,16.30
2018-06-21T19:29:38.340Z,16.00
2018-06-21T19:39:27.436Z,15.40
2018-06-21T19:44:21.966Z,15.20
2018-06-21T19:54:10.967Z,14.80
2018-06-21T19:59:05.617Z,14.60
2018-06-21T20:04:00.350Z,14.40
2018-06-21T20:08:54.884Z,14.30
2018-06-21T20:13:51.403Z,14.20
2018-06-21T20:18:46.944Z,14.10
2018-06-21T20:23:43.972Z,14.00
2018-06-21T20:28:41.224Z,13.90
2018-06-21T20:33:36.837Z,13.80
2018-06-21T20:43:28.086Z,13.60
2018-06-21T20:48:22.876Z,13.50
2018-06-21T20:53:17.921Z,13.40
2018-06-21T20:58:12.618Z,13.40
2018-06-21T21:03:07.258Z,13.30
2018-06-21T21:08:02.307Z,13.20
2018-06-21T21:12:58.416Z,13.10
2018-06-21T21:17:54.023Z,13.00
2018-06-21T21:22:48.682Z,13.00
2018-06-21T21:32:37.969Z,12.80
2018-06-21T21:37:32.643Z,12.80
2018-06-21T21:42:28.658Z,12.70
2018-06-21T21:47:24.445Z,12.60
2018-06-21T21:52:20.386Z,12.50
2018-06-21T21:57:15.616Z,12.40
2018-06-21T22:02:10.420Z,12.40
2018-06-21T22:07:05.624Z,12.30
2018-06-21T22:12:01.102Z,12.20
2018-06-21T22:21:50.321Z,12.10
2018-06-21T22:26:46.766Z,12.00
2018-06-21T22:31:44.936Z,12.00
2018-06-21T22:36:43.429Z,11.90
2018-06-21T22:41:44.578Z,11.90
2018-06-21T22:46:40.609Z,11.70
2018-06-21T22:51:36.250Z,11.60
2018-06-21T22:56:34.229Z,11.60
2018-06-21T23:01:30.776Z,11.50
2018-06-21T23:06:25.888Z,11.40
2018-06-21T23:11:21.130Z,11.40
2018-06-21T23:16:15.782Z,11.30
2018-06-21T23:21:11.487Z,11.30
2018-06-21T23:26:06.091Z,11.20
2018-06-21T23:31:01.191Z,11.20
2018-06-21T23:35:56.292Z,11.10
2018-06-21T23:40:51.413Z,11.10
2018-06-21T23:45:45.920Z,11.00
2018-06-21T23:50:40.497Z,10.90
2018-06-21T23:55:34.951Z,10.90
